Time;durP1;ratioP1;P1;durP2;ratioP2;P2;SDS_P1;SDS_P2;PMS_P1;PMS_P2;Temp;Humidity;BMP_temperature;BMP_pressure;BME280_temperature;BME280_humidity;BME280_pressure;Samples;Min_cycle;Max_cycle;Signal;HPM_P1;HPM_P2
2022/07/01 00:01:58;;;;;;;12.50;7.90;;;13.90;91.10;;;;;;4998887;28;20038;-76
2022/07/01 00:04:27;;;;;;;13.55;8.40;;;13.90;91.10;;;;;;5001472;28;20514;-75
2022/07/01 00:06:56;;;;;;;11.63;7.68;;;13.80;91.20;;;;;;5002382;28;20040;-75
2022/07/01 00:09:23;;;;;;;14.98;8.20;;;13.80;91.20;;;;;;4998950;28;20033;-75
2022/07/01 00:11:50;;;;;;;14.80;8.27;;;13.80;91.10;;;;;;4988896;28;20034;-76
2022/07/01 00:14:16;;;;;;;12.95;8.10;;;13.70;91.10;;;;;;4994380;28;20046;-75
2022/07/01 00:16:42;;;;;;;14.23;8.32;;;13.70;91.10;;;;;;4998076;28;20148;-75
2022/07/01 00:19:07;;;;;;;11.38;8.15;;;13.70;91.10;;;;;;5002141;28;20457;-75
2022/07/01 00:21:34;;;;;;;15.23;8.00;;;13.70;91.20;;;;;;4996968;28;20130;-75
2022/07/01 00:24:00;;;;;;;11.85;7.60;;;13.60;91.30;;;;;;4994610;28;20525;-75
2022/07/01 00:26:26;;;;;;;13.45;8.70;;;13.70;91.30;;;;;;5003411;28;20092;-75
2022/07/01 00:28:51;;;;;;;12.13;8.90;;;13.60;91.30;;;;;;5019474;28;20366;-75
2022/07/01 00:31:17;;;;;;;12.70;8.98;;;13.60;91.30;;;;;;5014650;28;20086;-75
2022/07/01 00:33:43;;;;;;;14.25;8.63;;;13.60;91.40;;;;;;5007141;28;20073;-75
2022/07/01 00:36:09;;;;;;;13.38;9.05;;;13.60;91.50;;;;;;5000837;28;20093;-75
2022/07/01 00:38:34;;;;;;;15.20;8.38;;;13.70;91.50;;;;;;4998902;28;20061;-74
2022/07/01 00:41:00;;;;;;;13.00;9.32;;;13.70;91.40;;;;;;4995767;28;20468;-74
2022/07/01 00:43:27;;;;;;;11.98;8.73;;;13.70;91.30;;;;;;4996412;28;20441;-74
2022/07/01 00:45:52;;;;;;;10.73;8.38;;;13.70;91.30;;;;;;4999585;28;20042;-77
2022/07/01 00:48:22;;;;;;;13.77;8.45;;;13.70;91.30;;;;;;5000607;28;20036;-74
2022/07/01 00:50:48;;;;;;;10.88;8.82;;;13.60;91.30;;;;;;4994152;28;20058;-75
2022/07/01 00:53:14;;;;;;;14.93;9.82;;;13.60;91.30;;;;;;4997332;28;20473;-74
2022/07/01 00:55:41;;;;;;;14.35;9.93;;;13.60;91.40;;;;;;5001190;28;20037;-74
2022/07/01 00:58:08;;;;;;;14.75;9.48;;;13.60;91.30;;;;;;4995862;28;20034;-75
2022/07/01 01:00:38;;;;;;;13.48;9.38;;;13.60;91.50;;;;;;4999400;28;20049;-75
2022/07/01 01:03:10;;;;;;;13.55;9.15;;;13.60;91.50;;;;;;5001097;28;20047;-75
2022/07/01 01:05:37;;;;;;;18.10;9.45;;;13.50;91.50;;;;;;5000328;28;20038;-75
2022/07/01 01:08:03;;;;;;;14.90;10.82;;;13.50;91.50;;;;;;4998480;28;20076;-76
2022/07/01 01:10:30;;;;;;;13.77;9.68;;;13.50;91.50;;;;;;4990734;28;20034;-75
2022/07/01 01:12:57;;;;;;;13.75;9.65;;;13.50;91.60;;;;;;4997841;28;20189;-75
2022/07/01 01:15:23;;;;;;;11.65;9.25;;;13.50;91.60;;;;;;5002347;28;20354;-74
2022/07/01 01:17:50;;;;;;;14.50;9.40;;;13.50;91.60;;;;;;4997551;28;20034;-74
2022/07/01 01:20:17;;;;;;;13.27;9.70;;;13.40;91.70;;;;;;4998111;28;20044;-75
2022/07/01 01:22:44;;;;;;;17.23;10.73;;;13.40;91.70;;;;;;5000545;28;20026;-75
2022/07/01 01:25:10;;;;;;;14.35;10.23;;;13.30;91.60;;;;;;5000608;28;20042;-74
2022/07/01 01:27:37;;;;;;;15.85;10.02;;;13.40;91.70;;;;;;4995115;28;20125;-74
2022/07/01 01:30:07;;;;;;;13.73;9.52;;;13.30;91.60;;;;;;4997557;28;20498;-75
2022/07/01 01:32:35;;;;;;;12.48;9.48;;;13.30;91.60;;;;;;4997444;28;20040;-74
2022/07/01 01:35:01;;;;;;;15.77;9.23;;;13.30;91.60;;;;;;5008789;28;20092;-75
2022/07/01 01:37:27;;;;;;;15.48;10.73;;;13.30;91.70;;;;;;4996873;28;20442;-74
2022/07/01 01:39:54;;;;;;;18.77;10.73;;;13.20;91.70;;;;;;4998452;28;20549;-75
2022/07/01 01:42:21;;;;;;;19.42;9.93;;;13.20;91.70;;;;;;4996030;28;20065;-74
2022/07/01 01:44:47;;;;;;;13.45;9.98;;;13.20;91.70;;;;;;4999486;28;20053;-74
2022/07/01 01:47:13;;;;;;;15.88;9.68;;;13.20;91.60;;;;;;4996693;28;20168;-75
2022/07/01 01:49:39;;;;;;;14.63;9.75;;;13.10;91.70;;;;;;4996095;28;20497;-75
2022/07/01 01:52:06;;;;;;;14.30;9.77;;;13.10;91.70;;;;;;4998541;28;20053;-75
2022/07/01 01:54:32;;;;;;;14.77;9.98;;;13.10;91.80;;;;;;4992296;28;20038;-75
2022/07/01 01:56:58;;;;;;;13.95;8.68;;;13.10;91.70;;;;;;4999619;28;20364;-75
2022/07/01 01:59:24;;;;;;;14.85;9.55;;;13.10;91.70;;;;;;4995953;28;20687;-75
2022/07/01 02:01:50;;;;;;;17.35;9.43;;;13.10;91.70;;;;;;4997593;28;20042;-75
2022/07/01 02:04:16;;;;;;;12.77;8.25;;;13.00;91.60;;;;;;5008342;28;20100;-75
2022/07/01 02:06:42;;;;;;;14.77;8.48;;;13.00;91.70;;;;;;5000212;28;20804;-75
2022/07/01 02:09:08;;;;;;;13.52;9.00;;;13.10;91.70;;;;;;5002121;28;20033;-76
2022/07/01 02:11:34;;;;;;;15.85;8.95;;;13.10;91.70;;;;;;4989646;28;20037;-75
2022/07/01 02:14:00;;;;;;;13.90;7.72;;;13.00;91.60;;;;;;4994292;28;20041;-75
2022/07/01 02:16:26;;;;;;;13.77;8.43;;;13.00;91.70;;;;;;4993072;28;20051;-75
2022/07/01 02:18:52;;;;;;;12.38;8.02;;;12.90;91.70;;;;;;4993492;28;20048;-75
2022/07/01 02:21:18;;;;;;;14.48;7.32;;;12.90;91.60;;;;;;4998854;28;20038;-75
2022/07/01 02:23:44;;;;;;;15.93;8.25;;;12.90;91.60;;;;;;4996320;28;20042;-75
2022/07/01 02:26:09;;;;;;;15.45;7.30;;;12.90;91.60;;;;;;4989036;28;20038;-75
2022/07/01 02:28:35;;;;;;;14.05;7.35;;;12.90;91.60;;;;;;4996456;28;20071;-75
2022/07/01 02:31:02;;;;;;;16.10;6.97;;;12.90;91.70;;;;;;4995379;28;20042;-75
2022/07/01 02:33:28;;;;;;;14.48;7.80;;;12.80;91.60;;;;;;4999937;28;20103;-75
2022/07/01 02:35:54;;;;;;;11.50;6.90;;;12.80;91.50;;;;;;5001393;28;20484;-75
2022/07/01 02:38:19;;;;;;;13.80;6.75;;;12.80;91.50;;;;;;4997167;28;20513;-75
2022/07/01 02:40:45;;;;;;;12.88;6.93;;;12.70;91.60;;;;;;4996165;28;20429;-75
2022/07/01 02:43:11;;;;;;;13.07;7.05;;;12.80;91.60;;;;;;4994151;28;20050;-75
2022/07/01 02:45:37;;;;;;;10.40;7.18;;;12.70;91.50;;;;;;4988679;28;20038;-75
2022/07/01 02:48:02;;;;;;;15.65;6.53;;;12.80;91.60;;;;;;5001421;28;20034;-75
2022/07/01 02:50:28;;;;;;;12.05;6.50;;;12.70;91.60;;;;;;4995843;28;20493;-76
2022/07/01 02:52:54;;;;;;;12.95;6.72;;;12.70;91.60;;;;;;4995751;28;20050;-75
2022/07/01 02:55:20;;;;;;;9.88;5.75;;;12.70;91.60;;;;;;4995900;28;20426;-75
2022/07/01 02:57:49;;;;;;;12.65;6.82;;;12.70;91.50;;;;;;4996431;28;20129;-75
2022/07/01 03:00:15;;;;;;;13.80;6.57;;;12.70;91.50;;;;;;4991847;28;20045;-75
2022/07/01 03:02:41;;;;;;;11.95;6.43;;;12.60;91.60;;;;;;5001827;28;20048;-75
2022/07/01 03:05:08;;;;;;;11.68;6.40;;;12.70;91.60;;;;;;4997870;28;20053;-75
2022/07/01 03:07:37;;;;;;;11.63;5.75;;;12.60;91.60;;;;;;4998994;28;20299;-75
2022/07/01 03:10:07;;;;;;;9.98;6.03;;;12.60;91.50;;;;;;5002221;28;20057;-75
2022/07/01 03:12:38;;;;;;;11.60;5.97;;;12.60;91.60;;;;;;4992533;28;20061;-74
2022/07/01 03:15:07;;;;;;;12.23;6.22;;;12.60;91.70;;;;;;4995789;28;20536;-75
2022/07/01 03:17:34;;;;;;;10.55;5.95;;;12.60;91.60;;;;;;5000746;28;20164;-75
2022/07/01 03:20:01;;;;;;;8.98;5.22;;;12.60;91.60;;;;;;4994729;28;20034;-75
2022/07/01 03:22:29;;;;;;;13.43;6.32;;;12.60;91.50;;;;;;4989696;28;20061;-75
2022/07/01 03:24:55;;;;;;;10.90;6.00;;;12.60;91.50;;;;;;4998478;28;20504;-75
2022/07/01 03:27:21;;;;;;;12.23;6.00;;;12.60;91.50;;;;;;4998010;28;20038;-75
2022/07/01 03:29:47;;;;;;;14.32;7.95;;;12.60;91.50;;;;;;4999271;28;20038;-74
2022/07/01 03:32:13;;;;;;;14.95;10.23;;;12.60;91.40;;;;;;4995014;28;20042;-75
2022/07/01 03:34:40;;;;;;;17.88;13.27;;;12.60;91.40;;;;;;4997826;28;20513;-75
2022/07/01 03:37:07;;;;;;;17.63;14.60;;;12.50;91.30;;;;;;4994830;28;20042;-75
2022/07/01 03:39:34;;;;;;;20.00;13.98;;;12.50;91.40;;;;;;4995699;28;20038;-75
2022/07/01 03:41:59;;;;;;;19.73;13.35;;;12.50;91.40;;;;;;4999558;28;20453;-75
2022/07/01 03:44:25;;;;;;;18.30;11.57;;;12.50;91.30;;;;;;5001424;28;20848;-75
2022/07/01 03:46:51;;;;;;;15.65;11.25;;;12.50;91.30;;;;;;5000095;28;20089;-75
2022/07/01 03:49:16;;;;;;;18.90;11.75;;;12.50;91.40;;;;;;5000415;28;20458;-75
2022/07/01 03:51:42;;;;;;;18.50;10.52;;;12.50;91.40;;;;;;4996940;28;20540;-75
2022/07/01 03:56:52;;;;;;;15.65;9.38;;;12.50;91.30;;;;;;4995374;28;20151;-75
2022/07/01 03:59:18;;;;;;;17.08;10.10;;;12.50;91.30;;;;;;4994322;28;20121;-75
2022/07/01 04:01:43;;;;;;;15.27;10.02;;;12.40;91.30;;;;;;5003667;28;20045;-75
2022/07/01 04:04:09;;;;;;;13.82;8.40;;;12.40;91.30;;;;;;5002049;28;20111;-75
2022/07/01 04:06:35;;;;;;;13.63;8.20;;;12.40;91.30;;;;;;4999797;28;20433;-76
2022/07/01 04:09:02;;;;;;;11.43;9.27;;;12.40;91.30;;;;;;5001941;28;20050;-75
2022/07/01 04:11:27;;;;;;;15.25;8.23;;;12.40;91.30;;;;;;5001290;28;20038;-75
2022/07/01 04:13:53;;;;;;;13.77;8.40;;;12.40;91.30;;;;;;4999740;28;20042;-75
2022/07/01 04:16:20;;;;;;;14.25;8.45;;;12.50;91.30;;;;;;4998638;28;20073;-75
2022/07/01 04:18:46;;;;;;;13.63;7.40;;;12.50;91.10;;;;;;5014991;28;20300;-75
2022/07/01 04:23:59;;;;;;;14.88;7.82;;;12.40;91.00;;;;;;5008714;28;20622;-75
2022/07/01 04:26:25;;;;;;;16.10;7.00;;;12.50;91.00;;;;;;4995964;28;20095;-75
2022/07/01 04:28:52;;;;;;;14.05;8.23;;;12.50;90.90;;;;;;4999295;28;20515;-75
2022/07/01 04:31:18;;;;;;;14.32;8.40;;;12.50;90.80;;;;;;4993380;28;20038;-75
2022/07/01 04:33:44;;;;;;;13.13;7.55;;;12.40;90.90;;;;;;5000646;28;20088;-75
2022/07/01 04:36:10;;;;;;;10.85;7.53;;;12.40;91.00;;;;;;4995716;28;20142;-75
2022/07/01 04:38:36;;;;;;;13.65;7.43;;;12.50;90.90;;;;;;4999641;28;20045;-75
2022/07/01 04:43:46;;;;;;;13.45;7.43;;;12.60;90.90;;;;;;4996581;28;20044;-75
2022/07/01 04:46:11;;;;;;;12.35;8.10;;;12.60;90.60;;;;;;5000494;28;20033;-75
2022/07/01 04:48:37;;;;;;;16.42;7.80;;;12.60;90.60;;;;;;4997129;28;20474;-75
2022/07/01 04:51:03;;;;;;;16.55;7.82;;;12.60;90.40;;;;;;4999769;28;20034;-75
2022/07/01 04:53:28;;;;;;;16.63;8.50;;;12.70;90.40;;;;;;4997059;28;20517;-75
2022/07/01 04:55:54;;;;;;;17.30;8.45;;;12.80;90.20;;;;;;4995952;28;20042;-75
2022/07/01 04:58:19;;;;;;;13.73;7.63;;;12.90;90.10;;;;;;4994347;28;20036;-75
2022/07/01 05:00:48;;;;;;;16.70;7.72;;;12.90;90.10;;;;;;5000567;28;20086;-75
2022/07/01 05:03:14;;;;;;;16.38;7.80;;;12.90;90.00;;;;;;4994597;28;20492;-75
2022/07/01 05:05:40;;;;;;;14.80;8.25;;;13.00;89.90;;;;;;4998066;28;20037;-75
2022/07/01 05:08:05;;;;;;;16.85;8.00;;;13.10;89.70;;;;;;4999820;28;20038;-75
2022/07/01 05:10:31;;;;;;;15.85;8.27;;;13.10;89.80;;;;;;4998722;28;20040;-75
2022/07/01 05:12:57;;;;;;;13.07;7.07;;;13.60;90.50;;;;;;4998026;28;20046;-75
2022/07/01 05:15:22;;;;;;;10.02;5.53;;;15.00;88.20;;;;;;5001455;28;20050;-76
2022/07/01 05:23:16;;;;;;;9.75;4.53;;;19.50;68.60;;;;;;5002735;28;20080;-75
2022/07/01 05:25:42;;;;;;;8.63;3.80;;;20.40;64.60;;;;;;4999150;28;20054;-76
2022/07/01 05:28:08;;;;;;;11.52;4.43;;;20.90;62.10;;;;;;4995823;28;20048;-76
2022/07/01 05:30:33;;;;;;;7.90;3.55;;;21.30;58.80;;;;;;4998601;28;20058;-76
2022/07/01 05:32:59;;;;;;;7.75;3.40;;;21.50;59.60;;;;;;4999421;28;20045;-75
2022/07/01 05:35:25;;;;;;;9.43;3.65;;;21.80;58.50;;;;;;4996463;28;20077;-76
2022/07/01 05:37:51;;;;;;;13.43;3.90;;;22.50;56.20;;;;;;4995135;28;21549;-76
2022/07/01 05:40:17;;;;;;;12.32;4.28;;;22.40;55.30;;;;;;4994752;28;20041;-75
2022/07/01 05:42:42;;;;;;;10.07;3.30;;;22.30;54.80;;;;;;4996248;28;20180;-75
2022/07/01 05:45:08;;;;;;;10.05;3.22;;;22.50;55.90;;;;;;4992244;28;20030;-75
2022/07/01 05:47:34;;;;;;;8.10;3.10;;;22.50;54.90;;;;;;4998197;28;20045;-75
2022/07/01 05:50:00;;;;;;;7.25;3.10;;;22.10;54.70;;;;;;4996682;28;20033;-75
2022/07/01 05:52:26;;;;;;;9.48;3.85;;;22.10;57.10;;;;;;4997487;28;20449;-75
2022/07/01 05:54:51;;;;;;;9.88;3.40;;;21.80;55.90;;;;;;4999349;28;20462;-75
2022/07/01 05:57:17;;;;;;;10.82;3.63;;;21.80;57.10;;;;;;4992055;28;20129;-75
2022/07/01 05:59:43;;;;;;;11.15;3.90;;;21.30;58.10;;;;;;4998446;28;20151;-75
2022/07/01 06:02:08;;;;;;;11.43;3.72;;;20.20;61.30;;;;;;4998336;28;20145;-75
2022/07/01 06:04:34;;;;;;;10.50;3.50;;;19.10;65.60;;;;;;5003026;28;20061;-75
2022/07/01 06:07:00;;;;;;;10.25;3.47;;;18.40;68.30;;;;;;4997921;28;20481;-75
2022/07/01 06:09:25;;;;;;;10.52;2.67;;;18.00;70.50;;;;;;4996814;28;20054;-75
2022/07/01 06:11:51;;;;;;;9.95;2.67;;;17.60;70.30;;;;;;4990236;28;20117;-76
2022/07/01 06:14:17;;;;;;;9.57;2.88;;;17.40;71.40;;;;;;5001563;28;20077;-76
2022/07/01 06:16:42;;;;;;;10.10;3.00;;;17.20;72.10;;;;;;4996743;28;20042;-75
2022/07/01 06:19:08;;;;;;;9.32;2.90;;;16.90;73.40;;;;;;4993043;28;20045;-75
2022/07/01 06:21:34;;;;;;;14.00;3.42;;;16.90;73.00;;;;;;4987867;28;20473;-76
2022/07/01 06:23:59;;;;;;;11.05;3.10;;;16.80;74.10;;;;;;4994297;28;20511;-75
2022/07/01 06:26:25;;;;;;;9.75;2.78;;;16.80;74.30;;;;;;4991141;28;20039;-76
2022/07/01 06:28:51;;;;;;;8.15;2.40;;;16.90;74.90;;;;;;5006515;28;20129;-74
2022/07/01 06:31:17;;;;;;;13.07;3.03;;;17.00;74.50;;;;;;4985105;28;20093;-75
2022/07/01 06:33:42;;;;;;;10.77;2.80;;;17.20;74.60;;;;;;4995806;28;20041;-75
2022/07/01 06:36:08;;;;;;;10.85;2.50;;;17.20;73.90;;;;;;4994300;28;20074;-75
2022/07/01 06:38:34;;;;;;;9.23;2.60;;;17.30;73.10;;;;;;4998276;28;20065;-75
2022/07/01 06:43:44;;;;;;;10.05;2.65;;;17.50;73.70;;;;;;4988380;28;20515;-75
2022/07/01 06:46:10;;;;;;;9.65;2.72;;;17.50;73.50;;;;;;4992390;28;20042;-76
2022/07/01 06:48:36;;;;;;;9.68;2.58;;;17.50;73.40;;;;;;4992659;28;20044;-76
2022/07/01 06:51:02;;;;;;;6.50;2.10;;;17.50;72.70;;;;;;4988601;28;20116;-76
2022/07/01 06:53:28;;;;;;;10.27;2.38;;;17.40;71.60;;;;;;4989161;28;20072;-74
2022/07/01 06:55:54;;;;;;;11.57;2.47;;;17.30;72.10;;;;;;4991581;28;20038;-74
2022/07/01 06:58:19;;;;;;;6.38;1.88;;;17.30;72.30;;;;;;4992904;28;20034;-74
2022/07/01 07:00:45;;;;;;;7.15;1.90;;;17.40;71.70;;;;;;4990295;28;20046;-74
2022/07/01 07:03:11;;;;;;;11.00;2.30;;;17.30;71.80;;;;;;4988149;28;20127;-75
2022/07/01 07:05:36;;;;;;;9.00;2.63;;;17.50;71.80;;;;;;4994937;28;20046;-74
2022/07/01 07:08:02;;;;;;;8.98;2.22;;;17.70;72.00;;;;;;4995097;28;20035;-75
2022/07/01 07:10:28;;;;;;;10.75;2.30;;;17.90;71.50;;;;;;4994956;28;20049;-74
2022/07/01 07:12:54;;;;;;;9.95;2.25;;;18.00;71.50;;;;;;4991694;28;20088;-74
2022/07/01 07:15:19;;;;;;;10.10;2.05;;;18.10;71.90;;;;;;4989270;28;20086;-74
2022/07/01 07:17:45;;;;;;;10.05;2.42;;;18.30;70.60;;;;;;4992310;28;20048;-74
2022/07/01 07:20:11;;;;;;;8.32;2.00;;;18.40;69.00;;;;;;4995518;28;20088;-74
2022/07/01 07:22:36;;;;;;;7.53;1.85;;;18.50;69.10;;;;;;4995453;28;20093;-74
2022/07/01 07:25:02;;;;;;;8.02;1.95;;;18.60;69.10;;;;;;4991159;28;20066;-75
2022/07/01 07:27:28;;;;;;;6.18;1.88;;;18.60;68.80;;;;;;4994560;28;20072;-74
2022/07/01 07:29:54;;;;;;;7.90;1.80;;;18.40;66.90;;;;;;5002179;28;20042;-75
2022/07/01 07:32:19;;;;;;;5.22;1.58;;;18.30;67.70;;;;;;5010799;28;20034;-73
2022/07/01 07:34:45;;;;;;;5.82;1.60;;;18.10;68.30;;;;;;4994815;28;20042;-74
2022/07/01 07:37:11;;;;;;;7.90;1.98;;;18.10;68.60;;;;;;4991703;28;20577;-73
2022/07/01 07:39:37;;;;;;;7.35;1.80;;;18.20;68.60;;;;;;4996481;28;20037;-74
2022/07/01 07:42:04;;;;;;;8.23;1.50;;;18.10;68.90;;;;;;4995664;28;20081;-74
2022/07/01 07:44:29;;;;;;;6.53;1.45;;;18.60;68.60;;;;;;4988194;28;20161;-75
2022/07/01 07:46:56;;;;;;;6.78;1.38;;;18.80;67.70;;;;;;4984884;28;20337;-73
2022/07/01 07:49:23;;;;;;;5.28;1.67;;;19.10;66.00;;;;;;4993738;28;20038;-74
2022/07/01 07:51:49;;;;;;;9.07;1.35;;;19.50;64.50;;;;;;4999980;28;20129;-75
2022/07/01 07:54:14;;;;;;;6.25;1.65;;;19.60;61.80;;;;;;5002861;28;20038;-73
2022/07/01 07:56:40;;;;;;;9.02;1.85;;;19.80;64.00;;;;;;4999575;28;20048;-74
2022/07/01 07:59:06;;;;;;;5.78;1.42;;;20.10;62.70;;;;;;5000826;28;20406;-75
2022/07/01 08:01:32;;;;;;;8.05;1.38;;;20.20;60.70;;;;;;4996259;28;20378;-75
2022/07/01 08:03:58;;;;;;;6.78;1.52;;;20.20;60.40;;;;;;4999314;28;20173;-75
2022/07/01 08:06:24;;;;;;;5.95;1.50;;;20.40;61.20;;;;;;4996662;28;20057;-75
2022/07/01 08:08:49;;;;;;;7.65;1.85;;;20.10;61.30;;;;;;4993715;28;20038;-74
2022/07/01 08:11:15;;;;;;;6.78;1.40;;;20.30;62.40;;;;;;4996512;28;20045;-75
2022/07/01 08:13:41;;;;;;;9.15;1.40;;;20.10;62.20;;;;;;5009035;28;20117;-75
2022/07/01 08:16:07;;;;;;;8.18;1.70;;;20.40;60.30;;;;;;5004182;28;20042;-74
2022/07/01 08:18:32;;;;;;;8.65;2.03;;;20.10;58.80;;;;;;4991002;28;20125;-74
2022/07/01 08:20:58;;;;;;;5.40;1.65;;;20.00;60.40;;;;;;4988152;28;20048;-73
2022/07/01 08:23:24;;;;;;;7.45;1.88;;;20.10;60.60;;;;;;4990603;28;20046;-74
2022/07/01 08:25:50;;;;;;;11.80;2.40;;;20.10;61.20;;;;;;4990158;28;20070;-74
2022/07/01 08:28:16;;;;;;;9.82;1.77;;;20.50;60.00;;;;;;4987149;28;20045;-74
2022/07/01 08:30:43;;;;;;;7.05;1.50;;;20.60;59.60;;;;;;4986093;28;20140;-74
2022/07/01 08:33:09;;;;;;;6.05;1.20;;;20.70;58.70;;;;;;4987380;28;20151;-73
2022/07/01 08:35:35;;;;;;;4.50;1.83;;;20.80;56.00;;;;;;4996616;28;20041;-73
2022/07/01 08:38:00;;;;;;;6.65;1.60;;;20.70;57.00;;;;;;4992471;28;20393;-74
2022/07/01 08:40:30;;;;;;;7.90;1.90;;;20.60;57.60;;;;;;4992457;28;20739;-73
2022/07/01 08:43:06;;;;;;;5.13;1.35;;;20.60;58.20;;;;;;4988936;28;20100;-73
2022/07/01 08:45:38;;;;;;;4.82;1.50;;;20.30;58.20;;;;;;4988062;28;20898;-75
2022/07/01 08:48:06;;;;;;;4.53;1.10;;;20.40;58.40;;;;;;4987948;28;20084;-74
2022/07/01 08:50:37;;;;;;;5.18;1.27;;;20.20;56.70;;;;;;4990349;28;20124;-73
2022/07/01 08:53:03;;;;;;;6.75;1.50;;;20.10;57.50;;;;;;4990353;28;20034;-75
2022/07/01 08:55:30;;;;;;;7.18;1.30;;;20.10;57.60;;;;;;4993289;28;20037;-74
2022/07/01 08:57:57;;;;;;;7.20;1.58;;;20.30;56.50;;;;;;4993587;28;20408;-74
2022/07/01 09:00:29;;;;;;;7.25;1.90;;;20.40;56.90;;;;;;4992469;28;20057;-75
2022/07/01 09:03:01;;;;;;;8.18;1.60;;;20.40;58.10;;;;;;4989722;28;20026;-74
2022/07/01 09:05:28;;;;;;;8.30;1.50;;;20.10;57.80;;;;;;4992706;28;20049;-73
2022/07/01 09:08:00;;;;;;;6.13;1.50;;;19.70;57.90;;;;;;4994565;28;20033;-74
2022/07/01 09:10:27;;;;;;;8.25;1.80;;;19.70;58.20;;;;;;4990368;28;20038;-75
2022/07/01 09:12:53;;;;;;;5.05;1.83;;;20.20;58.30;;;;;;4992001;28;20041;-74
2022/07/01 09:15:25;;;;;;;7.22;1.70;;;20.90;56.30;;;;;;4997741;28;20045;-74
2022/07/01 09:17:55;;;;;;;6.32;1.48;;;21.10;54.90;;;;;;4998920;28;20038;-74
2022/07/01 09:20:27;;;;;;;9.40;2.03;;;21.10;55.20;;;;;;5001681;28;20042;-74
2022/07/01 09:22:59;;;;;;;5.82;1.35;;;21.00;55.30;;;;;;4996631;28;20050;-74
2022/07/01 09:25:30;;;;;;;6.25;1.80;;;21.10;55.90;;;;;;4997825;28;20572;-74
2022/07/01 09:28:08;;;;;;;9.50;1.80;;;20.20;57.20;;;;;;5002569;28;20041;-74
2022/07/01 09:30:33;;;;;;;5.72;1.52;;;20.00;57.00;;;;;;5001379;28;20037;-74
2022/07/01 09:33:24;;;;;;;5.55;1.42;;;19.70;59.00;;;;;;5001545;28;20046;-74
2022/07/01 09:35:50;;;;;;;7.78;1.73;;;19.80;60.20;;;;;;4993610;28;20428;-74
2022/07/01 09:38:21;;;;;;;7.05;2.08;;;20.20;59.00;;;;;;4998907;28;20065;-75
2022/07/01 09:40:53;;;;;;;9.13;1.80;;;20.70;58.20;;;;;;4993505;28;20034;-73
2022/07/01 09:43:24;;;;;;;4.60;1.58;;;20.50;57.00;;;;;;5000038;28;20041;-74
2022/07/01 09:46:10;;;;;;;6.60;1.73;;;20.70;57.50;;;;;;5001093;28;20041;-73
2022/07/01 09:48:36;;;;;;;5.95;1.70;;;20.90;56.30;;;;;;4995431;28;20042;-74
2022/07/01 09:51:05;;;;;;;5.63;1.40;;;20.60;56.60;;;;;;4996222;28;20406;-75
2022/07/01 09:53:32;;;;;;;5.65;1.60;;;20.60;55.90;;;;;;5001611;28;20313;-75
2022/07/01 09:55:59;;;;;;;6.35;1.60;;;20.20;57.00;;;;;;4991842;28;20041;-74
2022/07/01 09:58:26;;;;;;;6.03;1.75;;;20.00;58.40;;;;;;4990423;28;20085;-74
2022/07/01 10:00:53;;;;;;;7.90;1.88;;;19.70;58.30;;;;;;4996306;28;20034;-75
2022/07/01 10:03:20;;;;;;;6.35;2.25;;;19.50;59.90;;;;;;4993630;28;20045;-74
2022/07/01 10:05:51;;;;;;;7.47;1.92;;;19.60;60.20;;;;;;5000392;28;20045;-74
2022/07/01 10:08:28;;;;;;;7.05;1.70;;;19.90;60.10;;;;;;4993833;28;20426;-74
2022/07/01 10:11:26;;;;;;;6.43;1.73;;;20.50;58.60;;;;;;5001015;28;20104;-77
2022/07/01 10:13:53;;;;;;;6.05;1.92;;;21.10;57.80;;;;;;4920111;28;20051;-77
2022/07/01 10:16:19;;;;;;;6.60;1.65;;;21.50;54.40;;;;;;4989173;28;20057;-75
2022/07/01 10:18:45;;;;;;;6.78;1.77;;;21.50;53.10;;;;;;4988541;28;20057;-75
2022/07/01 10:21:30;;;;;;;3.53;1.50;;;21.10;54.80;;;;;;4987106;28;20108;-75
2022/07/01 10:24:16;;;;;;;6.22;1.50;;;20.70;55.90;;;;;;5002563;28;20078;-76
2022/07/01 10:26:43;;;;;;;8.63;1.60;;;20.30;57.00;;;;;;4982091;28;20662;-75
2022/07/01 10:29:28;;;;;;;4.68;1.40;;;20.30;57.60;;;;;;4986951;28;20168;-75
2022/07/01 10:31:58;;;;;;;4.18;1.38;;;20.20;55.00;;;;;;4989459;28;20097;-75
2022/07/01 10:34:33;;;;;;;7.50;1.60;;;19.80;53.70;;;;;;5005131;28;20030;-77
2022/07/01 10:37:09;;;;;;;;;;;19.80;56.30;;;;;;4995609;28;20491;-76
2022/07/01 10:40:02;;;;;;;5.72;1.70;;;20.40;56.20;;;;;;4992925;28;19928;-76
2022/07/01 10:42:30;;;;;;;5.03;1.50;;;21.20;53.30;;;;;;4991325;28;20103;-74
2022/07/01 10:45:02;;;;;;;5.72;1.85;;;21.50;51.20;;;;;;4995607;28;20553;-73
2022/07/01 10:47:27;;;;;;;4.55;1.30;;;21.80;51.00;;;;;;5002898;28;20037;-74
2022/07/01 10:49:58;;;;;;;7.35;1.52;;;22.20;50.10;;;;;;4993162;28;20050;-76
2022/07/01 10:52:24;;;;;;;6.05;1.52;;;22.40;50.40;;;;;;4994742;28;20358;-75
2022/07/01 10:54:55;;;;;;;5.25;1.55;;;22.40;51.10;;;;;;5001271;28;20034;-73
2022/07/01 10:57:34;;;;;;;6.32;1.48;;;22.90;50.90;;;;;;4999378;28;20046;-75
2022/07/01 11:00:00;;;;;;;4.95;1.40;;;23.10;48.60;;;;;;4996270;28;20479;-74
2022/07/01 11:02:31;;;;;;;3.42;1.70;;;23.20;47.50;;;;;;4991627;28;20037;-75
2022/07/01 11:05:02;;;;;;;4.90;1.48;;;23.50;47.80;;;;;;4990594;28;20096;-75
2022/07/01 11:07:32;;;;;;;8.18;1.83;;;23.70;46.50;;;;;;4991162;28;20034;-74
2022/07/01 11:09:59;;;;;;;7.65;1.35;;;24.00;47.10;;;;;;4992140;28;20812;-74
2022/07/01 11:12:27;;;;;;;6.88;1.20;;;23.90;45.60;;;;;;4987608;28;20034;-74
2022/07/01 11:14:57;;;;;;;3.88;1.17;;;23.80;46.50;;;;;;4991903;28;20142;-74
2022/07/01 11:17:23;;;;;;;6.78;1.92;;;23.90;45.50;;;;;;4990519;28;20045;-75
2022/07/01 11:19:57;;;;;;;7.45;1.42;;;23.80;46.10;;;;;;4992322;28;20046;-74
2022/07/01 11:22:23;;;;;;;;;;;23.30;46.10;;;;;;4996295;28;20115;-75
2022/07/01 11:24:54;;;;;;;5.75;1.25;;;22.60;47.40;;;;;;5001836;28;19932;-74
2022/07/01 11:27:21;;;;;;;7.72;1.88;;;22.10;49.30;;;;;;4996244;28;20064;-74
2022/07/01 11:29:52;;;;;;;8.98;1.83;;;21.70;50.00;;;;;;4989152;28;20046;-74
2022/07/01 11:32:31;;;;;;;8.63;1.90;;;20.80;56.50;;;;;;4992672;28;20029;-74
2022/07/01 11:35:01;;;;;;;9.88;1.73;;;19.80;61.90;;;;;;4992920;28;20505;-74
2022/07/01 11:40:15;;;;;;;7.53;1.88;;;19.60;65.70;;;;;;4996844;28;20041;-73
2022/07/01 11:42:41;;;;;;;7.97;1.98;;;19.50;64.90;;;;;;4992231;28;20049;-72
2022/07/01 11:45:07;;;;;;;5.45;1.65;;;19.40;65.70;;;;;;4994978;28;20034;-73
2022/07/01 11:47:33;;;;;;;11.88;4.70;;;19.10;65.30;;;;;;4996488;28;20034;-75
2022/07/01 11:50:00;;;;;;;3.88;1.58;;;19.10;68.80;;;;;;4994247;28;20039;-73
2022/07/01 11:52:27;;;;;;;4.85;1.70;;;19.00;67.70;;;;;;4993584;28;20470;-76
2022/07/01 11:54:57;;;;;;;6.38;2.20;;;19.00;65.60;;;;;;4999745;28;20096;-73
2022/07/01 11:57:26;;;;;;;14.77;5.60;;;18.80;66.90;;;;;;4992070;28;20096;-73
2022/07/01 11:59:54;;;;;;;10.27;2.75;;;18.90;69.10;;;;;;4995121;28;20061;-72
2022/07/01 12:02:24;;;;;;;8.15;2.28;;;18.60;68.60;;;;;;4996710;28;20030;-72
2022/07/01 12:04:52;;;;;;;8.15;1.85;;;18.60;70.30;;;;;;5014500;28;20100;-72
2022/07/01 12:07:24;;;;;;;7.93;2.10;;;18.60;69.40;;;;;;5002661;28;20041;-73
2022/07/01 12:09:50;;;;;;;7.82;2.20;;;18.50;69.80;;;;;;5002337;28;20036;-72
2022/07/01 12:12:24;;;;;;;5.25;1.70;;;18.60;68.70;;;;;;5000592;28;20042;-73
2022/07/01 12:14:54;;;;;;;4.32;1.73;;;18.60;68.70;;;;;;4999277;28;20069;-73
2022/07/01 12:17:21;;;;;;;6.82;2.03;;;18.80;68.10;;;;;;5013565;28;20041;-73
2022/07/01 12:19:47;;;;;;;7.43;2.22;;;19.00;67.40;;;;;;5001827;28;20045;-72
2022/07/01 12:22:24;;;;;;;9.60;2.03;;;18.90;66.10;;;;;;4996797;28;20041;-71
2022/07/01 12:24:53;;;;;;;7.10;1.90;;;18.90;65.10;;;;;;4996607;28;20467;-71
2022/07/01 12:27:22;;;;;;;5.75;1.60;;;19.10;64.80;;;;;;4993504;28;20038;-72
2022/07/01 12:29:50;;;;;;;7.25;1.88;;;19.60;65.10;;;;;;4995288;28;20036;-72
2022/07/01 12:32:44;;;;;;;10.55;4.07;;;20.00;63.50;;;;;;4999930;28;20034;-72
2022/07/01 12:35:33;;;;;;;5.03;1.83;;;20.30;64.50;;;;;;4989845;28;20046;-72
2022/07/01 12:37:56;;;;;;;7.07;1.90;;;20.20;60.10;;;;;;4997853;28;20077;-72
2022/07/01 12:40:25;;;;;;;6.65;1.63;;;20.40;59.70;;;;;;4993587;28;20116;-72
2022/07/01 12:42:51;;;;;;;6.20;2.00;;;20.60;59.10;;;;;;4996162;28;20085;-71
2022/07/01 12:45:23;;;;;;;8.95;2.33;;;20.70;59.80;;;;;;4995309;28;20128;-72
2022/07/01 12:47:51;;;;;;;7.10;2.13;;;20.80;58.70;;;;;;4997569;28;20033;-72
2022/07/01 12:50:21;;;;;;;6.72;1.80;;;21.00;58.70;;;;;;4997843;28;20037;-72
2022/07/01 12:53:05;;;;;;;9.30;1.88;;;20.90;57.50;;;;;;4996250;28;20115;-72
2022/07/01 12:55:38;;;;;;;5.05;1.65;;;21.00;57.10;;;;;;4991752;28;20088;-72
2022/07/01 12:58:06;;;;;;;6.30;1.60;;;21.00;58.30;;;;;;4995251;28;20047;-72
2022/07/01 13:00:33;;;;;;;5.00;1.52;;;21.10;56.80;;;;;;4994389;28;20291;-72
2022/07/01 13:03:02;;;;;;;6.00;1.75;;;21.50;56.80;;;;;;4996033;28;20891;-74
2022/07/01 13:05:30;;;;;;;7.53;1.90;;;21.50;54.90;;;;;;5000248;28;20034;-73